createdAt,value
2023-02-21T00:00:08.302Z,101869.63
2023-02-21T00:02:53.377Z,101880.75
2023-02-21T00:05:38.886Z,101880.09
2023-02-21T00:08:24.598Z,101884.91
2023-02-21T00:11:11.953Z,101882.31
2023-02-21T00:13:58.015Z,101887.78
2023-02-21T00:16:43.497Z,101890.78
2023-02-21T00:19:29.107Z,101886.16
2023-02-21T00:22:14.600Z,101891.66
2023-02-21T00:24:59.957Z,101897.94
2023-02-21T00:27:48.968Z,101907.13
2023-02-21T00:30:34.817Z,101918.41
2023-02-21T00:33:20.648Z,101912.91
2023-02-21T00:36:05.844Z,101926.41
2023-02-21T00:38:51.110Z,101926.63
2023-02-21T00:41:36.461Z,101929.00
2023-02-21T00:44:23.367Z,101932.97
2023-02-21T00:47:08.772Z,101932.03
2023-02-21T00:49:54.267Z,101933.09
2023-02-21T00:52:39.420Z,101930.75
2023-02-21T00:55:25.335Z,101927.88
2023-02-21T00:58:10.725Z,101934.81
2023-02-21T01:00:57.704Z,101934.22
2023-02-21T01:03:42.689Z,101938.94
2023-02-21T01:06:28.581Z,101930.75
2023-02-21T01:09:14.025Z,101931.63
2023-02-21T01:11:59.454Z,101924.41
2023-02-21T01:14:44.770Z,101926.78
2023-02-21T01:17:31.776Z,101922.94
2023-02-21T01:20:19.345Z,101935.28
2023-02-21T01:23:05.793Z,101929.31
2023-02-21T01:25:51.119Z,101933.63
2023-02-21T01:28:36.520Z,101952.38
2023-02-21T01:31:21.795Z,101943.69
2023-02-21T01:34:08.537Z,101940.97
2023-02-21T01:36:53.963Z,101944.81
2023-02-21T01:39:39.324Z,101957.28
2023-02-21T01:42:24.908Z,101950.34
2023-02-21T01:45:50.239Z,101943.00
2023-02-21T01:48:38.022Z,101924.19
2023-02-21T01:51:26.055Z,101937.69
2023-02-21T01:54:12.478Z,101942.41
2023-02-21T01:56:58.500Z,101938.75
2023-02-21T01:59:44.734Z,101946.00
2023-02-21T02:02:32.518Z,101947.03
2023-02-21T02:05:19.009Z,101933.44
2023-02-21T02:08:05.799Z,101946.06
2023-02-21T02:10:51.334Z,101941.81
2023-02-21T02:13:43.065Z,101935.72
2023-02-21T02:16:16.530Z,101948.09
2023-02-21T02:18:56.019Z,101949.81
2023-02-21T02:21:49.065Z,101950.69
2023-02-21T02:24:33.473Z,101950.81
2023-02-21T02:27:29.637Z,101956.50
2023-02-21T02:30:36.703Z,101959.97
2023-02-21T02:33:41.892Z,101965.38
2023-02-21T02:36:13.628Z,101965.56
2023-02-21T02:38:48.895Z,101962.75
2023-02-21T02:41:24.703Z,101961.91
2023-02-21T02:43:55.564Z,101960.44
2023-02-21T02:46:25.217Z,101957.91
2023-02-21T02:48:58.233Z,101956.69
2023-02-21T02:51:28.226Z,101967.47
2023-02-21T02:53:56.157Z,101962.25
2023-02-21T02:56:26.765Z,101960.50
2023-02-21T02:58:56.804Z,101966.69
2023-02-21T03:01:55.463Z,101963.22
2023-02-21T03:04:45.778Z,101964.28
2023-02-21T03:07:19.787Z,101950.94
2023-02-21T03:09:56.309Z,101968.78
2023-02-21T03:12:34.235Z,101952.81
2023-02-21T03:15:05.685Z,101961.84
2023-02-21T03:17:38.259Z,101962.03
2023-02-21T03:20:07.137Z,101966.50
2023-02-21T03:22:36.929Z,101976.31
2023-02-21T03:25:06.035Z,101975.53
2023-02-21T03:27:35.004Z,101973.78
2023-02-21T03:30:05.438Z,101971.00
2023-02-21T03:32:35.051Z,101976.50
2023-02-21T03:35:03.019Z,101977.38
2023-02-21T03:37:32.752Z,101980.16
2023-02-21T03:40:02.599Z,101977.47
2023-02-21T03:42:30.502Z,101963.09
2023-02-21T03:44:58.449Z,101979.41
2023-02-21T03:47:26.378Z,101981.22
2023-02-21T03:49:54.292Z,101977.75
2023-02-21T03:52:22.213Z,101976.78
2023-02-21T03:54:50.145Z,101977.81
2023-02-21T03:57:19.444Z,101984.09
2023-02-21T03:59:47.449Z,101986.91
2023-02-21T04:02:15.575Z,101984.00
2023-02-21T04:04:43.632Z,101985.16
2023-02-21T04:07:12.040Z,101985.94
2023-02-21T04:09:39.966Z,101980.69
2023-02-21T04:12:08.024Z,101992.31
2023-02-21T04:14:37.638Z,101986.97
2023-02-21T04:17:05.857Z,101982.56
2023-02-21T04:19:33.781Z,101983.56
2023-02-21T04:22:01.709Z,101984.38
2023-02-21T04:24:29.798Z,101981.88
2023-02-21T04:26:58.730Z,101985.34
2023-02-21T04:29:26.746Z,101989.09
2023-02-21T04:31:56.215Z,101988.13
2023-02-21T04:34:24.198Z,101989.97
2023-02-21T04:36:52.098Z,101988.22
2023-02-21T04:39:20.041Z,101987.44
2023-02-21T04:41:47.952Z,101985.69
2023-02-21T04:44:17.537Z,101990.13
2023-02-21T04:46:45.454Z,101983.09
2023-02-21T04:49:15.388Z,101987.63
2023-02-21T04:51:43.458Z,101982.38
2023-02-21T04:54:13.863Z,101985.78
2023-02-21T04:56:41.998Z,101986.84
2023-02-21T04:59:09.897Z,101984.25
2023-02-21T05:01:37.845Z,101977.09
2023-02-21T05:04:06.217Z,101983.44
2023-02-21T05:06:35.735Z,101979.78
2023-02-21T05:09:04.053Z,101976.03
2023-02-21T05:11:35.797Z,101988.84
2023-02-21T05:14:03.960Z,101980.75
2023-02-21T05:16:31.864Z,101979.88
2023-02-21T05:18:59.876Z,101977.28
2023-02-21T05:21:27.780Z,101979.19
2023-02-21T05:23:57.042Z,101980.16
2023-02-21T05:26:27.528Z,101973.88
2023-02-21T05:28:55.515Z,101966.66
2023-02-21T05:31:23.480Z,101966.66
2023-02-21T05:33:51.456Z,101969.34
2023-02-21T05:36:19.528Z,101968.47
2023-02-21T05:38:48.199Z,101973.88
2023-02-21T05:41:18.178Z,101972.91
2023-02-21T05:43:46.670Z,101969.75
2023-02-21T05:46:23.226Z,101968.28
2023-02-21T05:48:51.210Z,101963.00
2023-02-21T05:51:19.439Z,101964.91
2023-02-21T05:53:47.485Z,101971.38
2023-02-21T05:56:17.202Z,101979.63
2023-02-21T05:58:45.092Z,101976.13
2023-02-21T06:01:13.321Z,101972.94
2023-02-21T06:03:41.438Z,101977.00
2023-02-21T06:06:09.374Z,101983.44
2023-02-21T06:08:43.987Z,101975.34
2023-02-21T06:11:12.277Z,101981.63
2023-02-21T06:13:41.760Z,101982.16
2023-02-21T06:16:09.728Z,101987.56
2023-02-21T06:18:37.711Z,101987.47
2023-02-21T06:21:05.809Z,101989.00
2023-02-21T06:23:33.690Z,101997.03
2023-02-21T06:26:01.668Z,102007.66
2023-02-21T06:28:30.548Z,102006.06
2023-02-21T06:30:59.988Z,102012.88
2023-02-21T06:33:27.978Z,102014.00
2023-02-21T06:35:55.944Z,102008.59
2023-02-21T06:38:24.015Z,102022.88
2023-02-21T06:40:52.244Z,102015.81
2023-02-21T06:43:20.178Z,102017.75
2023-02-21T06:45:48.097Z,102019.41
2023-02-21T06:48:17.732Z,102024.91
2023-02-21T06:50:45.835Z,102034.03
2023-02-21T06:53:13.781Z,102032.38
2023-02-21T06:55:41.723Z,102031.41
2023-02-21T06:58:10.829Z,102036.03
2023-02-21T07:00:38.821Z,102036.97
2023-02-21T07:03:07.059Z,102036.13
2023-02-21T07:05:38.593Z,102044.13
2023-02-21T07:08:06.914Z,102046.81
2023-02-21T07:10:34.975Z,102040.72
2023-02-21T07:13:02.885Z,102050.28
2023-02-21T07:15:30.781Z,102047.44
2023-02-21T07:17:58.705Z,102050.28
2023-02-21T07:20:27.523Z,102053.88
2023-02-21T07:22:56.833Z,102058.31
2023-02-21T07:25:25.040Z,102049.41
2023-02-21T07:27:53.884Z,102050.22
2023-02-21T07:30:22.068Z,102059.28
2023-02-21T07:32:50.118Z,102041.44
2023-02-21T07:35:18.198Z,102062.06
2023-02-21T07:37:46.101Z,102058.50
2023-02-21T07:40:15.470Z,102067.47
2023-02-21T07:42:44.778Z,102065.72
2023-02-21T07:45:13.397Z,102070.06
2023-02-21T07:47:41.592Z,102066.66
2023-02-21T07:50:09.969Z,102066.75
2023-02-21T07:52:38.016Z,102073.03
2023-02-21T07:55:06.549Z,102067.63
2023-02-21T07:57:35.919Z,102072.16
2023-02-21T08:00:04.668Z,102069.63
2023-02-21T08:02:32.764Z,102064.31
2023-02-21T08:05:01.132Z,102068.69
2023-02-21T08:07:29.132Z,102066.75
2023-02-21T08:09:57.060Z,102065.81
2023-02-21T08:12:24.945Z,102079.91
2023-02-21T08:14:54.216Z,102069.03
2023-02-21T08:17:22.232Z,102064.50
2023-02-21T08:19:50.216Z,102068.06
2023-02-21T08:22:18.132Z,102063.44
2023-02-21T08:24:46.231Z,102064.16
2023-02-21T08:27:14.396Z,102069.56
2023-02-21T08:29:42.292Z,102062.31
2023-02-21T08:32:11.941Z,102064.84
2023-02-21T08:34:39.846Z,102069.31
2023-02-21T08:37:14.703Z,102058.25
2023-02-21T08:39:46.094Z,102065.91
2023-02-21T08:42:14.265Z,102061.72
2023-02-21T08:44:44.865Z,102062.44
2023-02-21T08:47:14.825Z,102070.44
2023-02-21T08:49:45.110Z,102072.00
2023-02-21T08:52:12.991Z,102073.94
2023-02-21T08:54:41.096Z,102069.22
2023-02-21T08:57:08.989Z,102073.72
2023-02-21T08:59:38.698Z,102074.59
2023-02-21T09:02:18.050Z,102067.38
2023-02-21T09:04:46.468Z,102076.44
2023-02-21T09:07:15.034Z,102066.44
2023-02-21T09:09:42.970Z,102065.38
2023-02-21T09:12:11.056Z,102067.28
2023-02-21T09:14:40.166Z,102055.72
2023-02-21T09:17:09.864Z,102057.97
2023-02-21T09:19:39.320Z,102056.25
2023-02-21T09:22:08.360Z,102053.44
2023-02-21T09:24:36.325Z,102052.75
2023-02-21T09:27:04.296Z,102060.06
2023-02-21T09:29:45.091Z,102051.78
2023-02-21T09:32:14.850Z,102046.97
2023-02-21T09:34:44.734Z,102050.47
2023-02-21T09:37:12.656Z,102046.03
2023-02-21T09:39:40.585Z,102039.03
2023-02-21T09:42:08.669Z,102052.19
2023-02-21T09:44:36.820Z,102048.59
2023-02-21T09:47:06.825Z,102039.53
2023-02-21T09:49:37.014Z,102041.78
2023-02-21T09:52:07.101Z,102035.22
2023-02-21T09:54:36.994Z,102037.75
2023-02-21T09:57:10.888Z,102037.25
2023-02-21T09:59:38.811Z,102032.81
2023-02-21T10:02:26.007Z,102031.25
2023-02-21T10:05:00.798Z,102023.66
2023-02-21T10:07:37.148Z,102027.88
2023-02-21T10:10:09.318Z,102024.53
2023-02-21T10:12:41.234Z,102014.06
2023-02-21T10:15:35.695Z,102014.19
2023-02-21T10:18:08.080Z,102003.09
2023-02-21T10:20:40.006Z,102010.91
2023-02-21T10:23:16.494Z,102014.78
2023-02-21T10:25:45.867Z,102011.31
2023-02-21T10:28:19.229Z,102008.19
2023-02-21T10:30:48.395Z,102013.53
2023-02-21T10:33:16.424Z,102014.59
2023-02-21T10:35:44.369Z,102018.94
2023-02-21T10:38:18.191Z,102021.47
2023-02-21T10:40:48.400Z,102018.28
2023-02-21T10:43:19.325Z,102027.28
2023-02-21T10:45:52.368Z,102041.38
2023-02-21T10:48:21.652Z,102037.13
2023-02-21T10:50:54.508Z,102036.38
2023-02-21T10:53:28.478Z,102044.47
2023-02-21T10:56:24.725Z,102041.38
2023-02-21T10:58:54.994Z,102046.91
2023-02-21T11:01:32.622Z,102051.13
2023-02-21T11:04:02.247Z,102043.44
2023-02-21T11:06:35.170Z,102045.13
2023-02-21T11:09:25.860Z,102044.78
2023-02-21T11:12:02.008Z,102055.78
2023-02-21T11:14:30.424Z,102052.19
2023-02-21T11:17:18.904Z,102045.53
2023-02-21T11:19:49.820Z,102048.66
2023-02-21T11:22:20.017Z,102047.25
2023-02-21T11:24:53.345Z,102041.25
2023-02-21T11:27:21.456Z,102046.00
2023-02-21T11:29:51.525Z,102049.59
2023-02-21T11:32:26.376Z,102045.53
2023-02-21T11:35:02.505Z,102053.06
2023-02-21T11:37:32.414Z,102050.06
2023-02-21T11:40:08.693Z,102050.38
2023-02-21T11:42:36.619Z,102049.41
2023-02-21T11:45:12.050Z,102052.59
2023-02-21T11:47:45.814Z,102053.06
2023-02-21T11:50:17.533Z,102047.19
2023-02-21T11:52:48.368Z,102045.44
2023-02-21T11:55:21.640Z,102055.84
2023-02-21T11:57:56.725Z,102046.31
2023-02-21T12:00:31.085Z,102053.34
2023-02-21T12:03:24.622Z,102044.19
2023-02-21T12:06:00.312Z,102048.03
2023-02-21T12:08:38.716Z,102042.63
2023-02-21T12:11:30.269Z,102050.47
2023-02-21T12:14:22.955Z,102052.78
2023-02-21T12:16:58.072Z,102045.00
2023-02-21T12:19:48.471Z,102039.09
2023-02-21T12:22:24.389Z,102049.91
2023-02-21T12:25:01.331Z,102037.16
2023-02-21T12:27:37.650Z,102043.34
2023-02-21T12:30:18.808Z,102044.41
2023-02-21T12:32:52.247Z,102037.66
2023-02-21T12:35:49.334Z,102042.56
2023-02-21T12:38:25.159Z,102038.91
2023-02-21T12:41:00.457Z,102035.22
2023-02-21T12:43:43.644Z,102044.69
2023-02-21T12:46:17.018Z,102040.25
2023-02-21T12:48:52.381Z,102037.94
2023-02-21T12:51:22.581Z,102035.63
2023-02-21T12:53:54.852Z,102040.44
2023-02-21T12:56:26.484Z,102036.59
2023-02-21T12:59:00.727Z,102035.81
2023-02-21T13:01:32.312Z,102041.03
2023-02-21T13:04:09.853Z,102043.75
2023-02-21T13:06:39.905Z,102046.94
2023-02-21T13:09:18.365Z,102042.78
2023-02-21T13:11:52.042Z,102044.53
2023-02-21T13:14:26.027Z,102045.38
2023-02-21T13:16:54.213Z,102038.13
2023-02-21T13:19:22.814Z,102043.19
2023-02-21T13:22:02.124Z,102036.88
2023-02-21T13:24:47.510Z,102025.22
2023-02-21T13:27:46.067Z,102032.16
2023-02-21T13:30:26.328Z,102031.69
2023-02-21T13:32:56.286Z,102025.41
2023-02-21T13:35:30.892Z,102026.06
2023-02-21T13:38:00.033Z,102028.50
2023-02-21T13:40:35.551Z,102024.16
2023-02-21T13:43:07.674Z,102023.84
2023-02-21T13:45:36.948Z,102017.09
2023-02-21T13:48:24.175Z,102020.25
2023-02-21T13:50:53.036Z,102010.59
2023-02-21T13:53:22.508Z,102011.19
2023-02-21T13:56:26.930Z,102013.91
2023-02-21T13:59:33.123Z,102016.59
2023-02-21T14:02:19.248Z,102011.75
2023-02-21T14:05:06.561Z,102013.22
2023-02-21T14:07:46.135Z,102003.34
2023-02-21T14:10:24.378Z,102011.19
2023-02-21T14:12:56.062Z,102006.66
2023-02-21T14:15:24.079Z,102016.41
2023-02-21T14:17:54.760Z,102011.09
2023-02-21T14:20:24.351Z,102015.13
2023-02-21T14:22:54.104Z,102008.00
2023-02-21T14:25:25.910Z,102007.31
2023-02-21T14:27:54.120Z,102013.50
2023-02-21T14:30:31.815Z,102009.66
2023-02-21T14:33:10.274Z,102014.75
2023-02-21T14:35:46.834Z,102003.94
2023-02-21T14:38:19.309Z,102009.91
2023-02-21T14:40:55.606Z,102003.84
2023-02-21T14:43:41.615Z,102000.47
2023-02-21T14:46:51.010Z,102004.31
2023-02-21T14:49:58.581Z,102000.84
2023-02-21T14:53:08.172Z,102000.75
2023-02-21T14:56:18.482Z,101997.38
2023-02-21T14:59:11.820Z,101993.53
2023-02-21T15:01:46.911Z,101993.13
2023-02-21T15:04:21.846Z,101991.25
2023-02-21T15:06:58.987Z,101993.00
2023-02-21T15:09:26.904Z,101992.81
2023-02-21T15:11:56.629Z,101984.69
2023-02-21T15:14:27.488Z,101991.16
2023-02-21T15:16:56.828Z,101992.31
2023-02-21T15:19:29.066Z,101990.69
2023-02-21T15:22:17.748Z,102001.03
2023-02-21T15:25:16.158Z,101992.41
2023-02-21T15:28:12.466Z,101996.84
2023-02-21T15:30:42.691Z,102005.06
2023-02-21T15:33:16.949Z,102001.19
2023-02-21T15:35:48.515Z,101997.72
2023-02-21T15:38:20.407Z,101998.88
2023-02-21T15:40:49.123Z,102000.44
2023-02-21T15:43:28.847Z,102007.66
2023-02-21T15:46:00.276Z,102001.38
2023-02-21T15:48:28.349Z,102009.31
2023-02-21T15:50:56.328Z,102004.38
2023-02-21T15:53:26.160Z,101999.38
2023-02-21T15:55:54.432Z,102003.03
2023-02-21T15:58:24.835Z,102011.25
2023-02-21T16:01:08.064Z,102003.78
2023-02-21T16:03:38.392Z,102001.97
2023-02-21T16:06:21.605Z,102005.06
2023-02-21T16:08:58.906Z,102005.31
2023-02-21T16:11:39.341Z,102009.00
2023-02-21T16:14:07.884Z,102013.25
2023-02-21T16:16:37.275Z,102017.78
2023-02-21T16:19:05.218Z,102016.06
2023-02-21T16:21:33.125Z,102016.06
2023-02-21T16:24:28.445Z,102018.34
2023-02-21T16:27:07.885Z,102026.16
2023-02-21T16:29:35.810Z,102022.78
2023-02-21T16:32:05.484Z,102025.47
2023-02-21T16:34:36.240Z,102020.16
2023-02-21T16:37:06.158Z,102026.53
2023-02-21T16:39:34.116Z,102030.38
2023-02-21T16:42:02.001Z,102030.22
2023-02-21T16:44:30.138Z,102027.22
2023-02-21T16:46:58.058Z,102031.16
2023-02-21T16:49:27.558Z,102033.78
2023-02-21T16:51:55.432Z,102039.09
2023-02-21T16:54:23.622Z,102037.25
2023-02-21T16:56:53.567Z,102040.25
2023-02-21T16:59:22.985Z,102048.25
2023-02-21T17:01:51.062Z,102046.50
2023-02-21T17:04:21.253Z,102055.41
2023-02-21T17:06:54.000Z,102062.81
2023-02-21T17:09:23.477Z,102063.41
2023-02-21T17:11:51.527Z,102064.44
2023-02-21T17:14:19.616Z,102066.28
2023-02-21T17:16:47.820Z,102062.09
2023-02-21T17:19:17.519Z,102058.63
2023-02-21T17:21:45.956Z,102060.38
2023-02-21T17:24:16.450Z,102061.44
2023-02-21T17:26:44.634Z,102064.22
2023-02-21T17:29:12.788Z,102066.84
2023-02-21T17:31:40.710Z,102075.13
2023-02-21T17:34:08.888Z,102073.38
2023-02-21T17:36:36.811Z,102084.94
2023-02-21T17:39:06.065Z,102079.66
2023-02-21T17:41:35.372Z,102084.28
2023-02-21T17:44:03.287Z,102085.81
2023-02-21T17:46:32.177Z,102085.81
2023-02-21T17:49:00.131Z,102090.53
2023-02-21T17:51:28.066Z,102087.84
2023-02-21T17:53:56.649Z,102086.88
2023-02-21T17:56:25.721Z,102089.50
2023-02-21T17:58:55.689Z,102093.03
2023-02-21T18:01:23.698Z,102091.50
2023-02-21T18:03:51.798Z,102086.19
2023-02-21T18:06:19.715Z,102092.38
2023-02-21T18:08:47.632Z,102088.78
2023-02-21T18:11:17.579Z,102095.84
2023-02-21T18:13:46.180Z,102097.84
2023-02-21T18:16:16.065Z,102098.72
2023-02-21T18:18:45.219Z,102092.53
2023-02-21T18:21:13.508Z,102103.25
2023-02-21T18:23:44.332Z,102105.09
2023-02-21T18:26:12.962Z,102106.75
2023-02-21T18:28:41.052Z,102104.22
2023-02-21T18:31:11.007Z,102106.03
2023-02-21T18:33:40.481Z,102107.97
2023-02-21T18:36:09.874Z,102107.88
2023-02-21T18:38:40.227Z,102104.22
2023-02-21T18:41:11.695Z,102115.97
2023-02-21T18:43:40.772Z,102105.44
2023-02-21T18:46:10.983Z,102110.75
2023-02-21T18:48:43.158Z,102100.03
2023-02-21T18:51:11.685Z,102099.28
2023-02-21T18:53:39.746Z,102098.56
2023-02-21T18:56:10.588Z,102096.91
2023-02-21T18:58:38.624Z,102098.84
2023-02-21T19:01:07.469Z,102096.97
2023-02-21T19:03:35.569Z,102092.56
2023-02-21T19:06:06.317Z,102105.97
2023-02-21T19:08:34.327Z,102115.03
2023-02-21T19:11:02.268Z,102107.78
2023-02-21T19:13:30.153Z,102105.97
2023-02-21T19:15:59.988Z,102107.78
2023-02-21T19:18:30.487Z,102111.38
2023-02-21T19:21:04.538Z,102109.47
2023-02-21T19:23:33.818Z,102113.19
2023-02-21T19:26:01.748Z,102114.06
2023-02-21T19:28:29.631Z,102119.38
2023-02-21T19:30:57.604Z,102122.00
2023-02-21T19:33:25.649Z,102115.66
2023-02-21T19:35:53.577Z,102113.13
2023-02-21T19:38:21.571Z,102115.88
2023-02-21T19:40:50.877Z,102121.38
2023-02-21T19:43:18.899Z,102124.97
2023-02-21T19:45:46.840Z,102122.34
2023-02-21T19:48:15.959Z,102128.44
2023-02-21T19:50:43.936Z,102130.25
2023-02-21T19:53:11.864Z,102133.84
2023-02-21T19:55:39.755Z,102133.84
2023-02-21T19:58:09.354Z,102130.44
2023-02-21T20:00:39.941Z,102131.25
2023-02-21T20:03:07.989Z,102133.84
2023-02-21T20:05:36.204Z,102147.34
2023-02-21T20:08:05.385Z,102146.47
2023-02-21T20:10:33.353Z,102140.19
2023-02-21T20:13:02.331Z,102138.47
2023-02-21T20:15:31.645Z,102145.69
2023-02-21T20:17:59.567Z,102146.56
2023-02-21T20:20:27.488Z,102142.09
2023-02-21T20:22:55.662Z,102151.09
2023-02-21T20:25:23.583Z,102150.22
2023-02-21T20:27:51.530Z,102148.38
2023-02-21T20:30:19.629Z,102151.25
2023-02-21T20:32:48.975Z,102147.22
2023-02-21T20:35:16.980Z,102149.78
2023-02-21T20:37:44.904Z,102150.97
2023-02-21T20:40:15.394Z,102150.16
2023-02-21T20:42:43.378Z,102144.97
2023-02-21T20:45:11.638Z,102148.72
2023-02-21T20:47:39.574Z,102139.69
2023-02-21T20:50:09.720Z,102147.28
2023-02-21T20:52:39.801Z,102142.72
2023-02-21T20:55:09.486Z,102144.56
2023-02-21T20:57:37.568Z,102146.47
2023-02-21T21:00:09.501Z,102152.69
2023-02-21T21:02:38.944Z,102143.75
2023-02-21T21:05:13.725Z,102151.09
2023-02-21T21:07:42.247Z,102152.84
2023-02-21T21:10:14.467Z,102158.25
2023-02-21T21:12:42.989Z,102159.97
2023-02-21T21:15:11.343Z,102159.03
2023-02-21T21:17:40.817Z,102158.91
2023-02-21T21:20:14.522Z,102159.91
2023-02-21T21:22:42.820Z,102161.72
2023-02-21T21:25:11.288Z,102163.53
2023-02-21T21:27:41.491Z,102158.13
2023-02-21T21:30:11.031Z,102164.50
2023-02-21T21:32:39.124Z,102166.25
2023-02-21T21:35:09.308Z,102165.28
2023-02-21T21:37:37.520Z,102169.81
2023-02-21T21:40:16.190Z,102161.72
2023-02-21T21:42:44.888Z,102166.25
2023-02-21T21:45:18.591Z,102163.53
2023-02-21T21:47:47.537Z,102168.00
2023-02-21T21:50:18.716Z,102158.13
2023-02-21T21:52:51.401Z,102158.13
2023-02-21T21:55:21.573Z,102155.28
2023-02-21T21:57:53.400Z,102159.91
2023-02-21T22:00:23.728Z,102161.72
2023-02-21T22:02:57.134Z,102158.91
2023-02-21T22:05:27.292Z,102166.19
2023-02-21T22:07:55.873Z,102167.03
2023-02-21T22:10:25.369Z,102165.19
2023-02-21T22:12:54.141Z,102165.97
2023-02-21T22:15:24.087Z,102161.63
2023-02-21T22:17:52.425Z,102161.63
2023-02-21T22:20:21.856Z,102156.59
2023-02-21T22:23:02.715Z,102158.13
2023-02-21T22:25:32.110Z,102151.84
2023-02-21T22:28:01.700Z,102153.44
2023-02-21T22:30:29.595Z,102149.53
2023-02-21T22:32:57.499Z,102148.81
2023-02-21T22:35:28.534Z,102141.66
2023-02-21T22:38:01.956Z,102131.84
2023-02-21T22:40:31.060Z,102124.63
2023-02-21T22:43:00.765Z,102121.06
2023-02-21T22:45:33.208Z,102122.69
2023-02-21T22:48:03.347Z,102116.44
2023-02-21T22:50:36.665Z,102113.72
2023-02-21T22:53:08.379Z,102104.75
2023-02-21T22:55:38.083Z,102115.47
2023-02-21T22:58:07.965Z,102095.53
2023-02-21T23:00:36.613Z,102093.19
2023-02-21T23:03:12.768Z,102092.22
2023-02-21T23:05:49.607Z,102081.00
2023-02-21T23:08:22.701Z,102077.31
2023-02-21T23:10:51.667Z,102076.03
2023-02-21T23:13:21.508Z,102069.66
2023-02-21T23:15:49.627Z,102065.13
2023-02-21T23:18:20.639Z,102062.44
2023-02-21T23:20:52.764Z,102055.97
2023-02-21T23:23:25.981Z,102050.59
2023-02-21T23:25:56.603Z,102046.22
2023-02-21T23:28:24.500Z,102041.72
2023-02-21T23:30:52.388Z,102034.50
2023-02-21T23:33:23.663Z,102038.91
2023-02-21T23:35:52.825Z,102025.41
2023-02-21T23:38:24.581Z,102013.84
2023-02-21T23:40:56.543Z,102016.44
2023-02-21T23:43:26.071Z,102010.09
2023-02-21T23:45:54.287Z,102008.25
2023-02-21T23:48:22.803Z,102004.69
2023-02-21T23:50:51.082Z,101998.50
2023-02-21T23:53:21.035Z,102000.25
2023-02-21T23:55:50.960Z,101992.13
2023-02-21T23:58:20.385Z,101987.72
